Aeroporto :
LOGIN :

Iscrizione | Disclaimer

   EN    FR    IT 

 










Sommario :    VFR   VFR Marginale   IFR   IFR Intensivo   IFR Molto Intensivo
Visibilità : 
Base nubi : 
>= 8 km
>= 3000ft
5 / 8 km
1000 / 3000 ft
1500m / 5 km
500 / 1000 ft
800 / 1500m
200 / 500 ft
< 800m
< 200 ft
Simboli :   Temporali  Nebbia  Neve Forte  Precipitazioni Forti  Vento > 20 kt
SIGMETs :   Varie  Temporali  Ghiacco  Turbolenza  Onda orograficha  Ceneri Vulcaniche







- Altitudine del aeroporto : 19 ft
- Codice IATA : BEB
- Carte del aeroporto


EGPL - Benbecula

ULTIMO METAR :
  • 240820Z 32009KT 9999 BKN020 10/05 Q1017

METARs OBSOLETI :
  • 240750Z 30008KT 270V340 9999 SCT018 BKN020 10/05 Q1017
  • 240720Z 31009KT 9999 SCT018 BKN020 10/05 Q1017
  • 240650Z 32010KT 280V350 9999 SCT018 BKN020 09/05 Q1017
  • 240620Z 29010KT 9999 SCT016 BKN020 09/05 Q1017
  • 240550Z AUTO 31010KT 9999 OVC019/// 09/05 Q1017

TAF TAF EGPL
Valido dal 24 a 09 ore il 24 a 18 ore UTC


240801Z 2409/2418 31012KT 9999 BKN018
PROB40
TEMPO 2409/2415 8000 -SHRA BKN012
ATIS : +44 1870 604 818
Nessun NOTAM noto per questo aeroporto.



MetMap, La meteo Aeronautica in un colpo d'occhio ! - Copyright ORBIFLY Dicembre 2007 - Disclaimer

ORBIFLY MET'MAP TEAM :

Programmazione e sviluppo : Alexandra Zaïnal
Concezione e sviluppo : Baudouin d'Aumeries
Co-Programmazione e sviluppo : Marc-Olivier Méhu
Supporto tecnico e logistico : Manuel Goepfert
Aiuto per la traduzione : Arnaldo La Scala

Contatto : metmap@orbifly.com




FONTI E CREDITI :

   NOAA